Home   Weather   USA   Los Angeles   Past weeks
Flag for USA

Past Weather in Los Angeles, California, USA — December 2018

Currently: 58 °F. Partly sunny. (Weather station: Hawthorne Municipal Airport, USA). See more current weather

December 2018 Weather in Los Angeles — Graph

°F

High & Low Weather Summary for December 2018

 TemperatureHumidityPressure
High78 °F (Dec 13, 1:53 pm)100% (Dec 22, 12:53 am)30.34 "Hg (Dec 22, 12:53 am)
Low40 °F (Dec 29, 6:53 am)14% (Dec 28, 11:53 am)29.74 "Hg (Dec 25, 12:53 pm)
Average58 °F67%30.06 "Hg
* Reported Dec 1 12:53 am — Dec 31 11:53 pm, Los Angeles. Weather by CustomWeather, © 2024

Note: Actual official high and low records may vary slightly from our data, if they occured in-between our weather recording intervals... More about our weather records

Los Angeles Weather History for December 1, 2018

Scroll right to see more
 ConditionsComfort  
Time TempWeatherWind HumidityBarometerVisibility
12:53 am
Sat, Dec 1
55 °FClear.No wind55%29.98 "Hg10 mi
1:53 am53 °FClear.No wind69%29.98 "Hg10 mi
2:53 am52 °FClear.No wind72%29.98 "Hg10 mi
3:53 am51 °FClear.No wind74%29.98 "Hg10 mi
4:53 am50 °FClear.No wind80%29.98 "Hg10 mi
5:53 am51 °FClear.No wind74%30.00 "Hg10 mi
6:53 am50 °FSunny.No wind74%30.01 "Hg10 mi
7:53 am54 °FSunny.No wind64%30.01 "Hg10 mi
8:53 am58 °FSunny.3 mph58%30.01 "Hg10 mi
9:53 am61 °FSunny.5 mph56%30.02 "Hg10 mi
10:53 am63 °FSunny.No wind41%30.00 "Hg10 mi
11:53 am65 °FSunny.10 mph37%29.97 "Hg10 mi
12:53 pm63 °FSunny.14 mph47%29.94 "Hg10 mi
1:53 pm64 °FSunny.15 mph49%29.93 "Hg10 mi
2:53 pm63 °FSunny.12 mph43%29.93 "Hg10 mi
3:53 pm63 °FSunny.12 mph52%29.90 "Hg10 mi
4:53 pm61 °FClear.15 mph65%29.90 "Hg10 mi
5:53 pm60 °FClear.6 mph65%29.89 "Hg10 mi
6:53 pm59 °FClear.8 mph69%29.90 "Hg10 mi
7:53 pm59 °FClear.7 mph67%29.92 "Hg10 mi
8:53 pm58 °FClear.8 mph72%29.92 "Hg10 mi
9:53 pm58 °FPartly cloudy.3 mph65%29.93 "Hg10 mi
10:53 pm57 °FPassing clouds.6 mph67%29.94 "Hg10 mi
11:53 pm57 °FClear.7 mph58%29.94 "Hg10 mi
Weather by CustomWeather, © 2024

See weather overview